Pagina principale
METAR-TAF:

METAR-TAF

Aeroporti :

Sugh el Giumaa

Tripoli, Libia

latitudine: 32-54N, longitudine: 13-17E, altezza: 11 m

METAR: mancante

Ora: 05:24 (03:24 UTC)

Previsione

Il bollettino è stato emesso 16 ore e 24 minuti fa, alle 11:00 UTC
Previsione valida dal 13 alle 12 UTC al 14 alle 12 UTC
Vento 10 kt da ovest/sud-ovest
Visibilità 10 km o più
nessuna nube inferiore a 1500 m e nessun cumulonembo
Evoluzione graduale
dal 13 alle 16 UTC al 13 alle 18 UTC
Vento 2 kt da direzioni variabili
Evoluzione graduale
dal 14 alle 10 UTC al 14 alle 12 UTC
Vento 15 kt da sud/sud-ovest

TAF: HLLM 131100Z 1312/1412 25010KT CAVOK BECMG 1316/1318 VRB02KT BECMG 1410/1412 20015KT

Osservazioni e previsioni meteorologiche di più di 4000 aeroporti (messaggi METAR e TAF).

Le stazioni disponibili sono rappresentate dai dischi gialli e rossi sulla carta.

Puntare il mouse per vedere il nome della stazione.

Clicca sopra per visualizzare le osservazioni e previsioni meteorologiche.

Per cambiare la mappa : fare clic sui pulsanti verdi con una croce nera per ingrandire, il pulsante verde con un trattino per diminuire, o sulla freccia verde per le mappe adiacenti.


METAR-TAF: